Time;durP1;ratioP1;P1;durP2;ratioP2;P2;SDS_P1;SDS_P2;PMS_P1;PMS_P2;Temp;Humidity;BMP_temperature;BMP_pressure;BME280_temperature;BME280_humidity;BME280_pressure;Samples;Min_cycle;Max_cycle;Signal;HPM_P1;HPM_P2
2021/09/27 00:01:09;;;;;;;21.65;15.07;;;16.50;75.30;;;16.24;59.89;94992.22;5051451;28;20222;-80
2021/09/27 00:03:37;;;;;;;16.30;14.50;;;16.40;76.00;;;16.24;60.12;94990.34;5035441;28;20221;-79
2021/09/27 00:06:06;;;;;;;17.65;14.07;;;16.40;75.40;;;16.25;59.97;95001.75;5051672;28;20278;-79
2021/09/27 00:08:34;;;;;;;16.30;14.55;;;16.40;75.60;;;16.27;60.47;95000.50;5051582;28;20199;-80
2021/09/27 00:11:08;;;;;;;16.23;14.52;;;16.40;75.50;;;16.28;60.35;95003.94;5035355;28;20269;-79
2021/09/27 00:13:40;;;;;;;16.25;14.52;;;16.50;76.10;;;16.31;60.27;95000.88;5051660;28;20209;-79
2021/09/27 00:16:11;;;;;;;17.52;13.55;;;16.50;76.20;;;16.31;60.19;94993.72;5051840;28;20696;-79
2021/09/27 00:18:38;;;;;;;16.58;13.90;;;16.50;76.00;;;16.34;60.22;95000.41;5034457;28;20203;-79
2021/09/27 00:21:14;;;;;;;19.33;14.45;;;16.60;75.80;;;16.37;60.18;94997.31;5051226;28;20245;-80
2021/09/27 00:23:42;;;;;;;15.57;13.73;;;16.50;76.00;;;16.38;60.20;95001.56;5051454;28;20265;-80
2021/09/27 00:26:09;;;;;;;17.08;13.82;;;16.50;75.80;;;16.39;60.21;95003.16;5051242;28;20590;-79
2021/09/27 00:28:37;;;;;;;16.85;13.85;;;16.50;75.90;;;16.41;60.26;95000.31;5030700;28;20200;-80
2021/09/27 00:31:07;;;;;;;16.35;13.75;;;16.60;75.80;;;16.42;60.38;95000.09;5015096;28;20212;-79
2021/09/27 00:33:34;;;;;;;15.07;12.82;;;16.60;76.20;;;16.43;60.06;95001.69;5031005;28;20619;-80
2021/09/27 00:36:03;;;;;;;15.00;13.43;;;16.50;75.80;;;16.43;60.24;95012.28;5015025;28;20216;-79
2021/09/27 00:38:31;;;;;;;16.08;14.38;;;16.60;75.90;;;16.43;60.24;95012.28;5048027;28;20234;-80
2021/09/27 00:41:05;;;;;;;17.15;14.10;;;16.70;75.90;;;16.44;60.67;95015.72;5015045;28;20242;-80
2021/09/27 00:43:35;;;;;;;16.90;14.48;;;16.60;76.20;;;16.46;60.42;95013.69;5015017;28;20199;-79
2021/09/27 00:46:10;;;;;;;16.77;14.32;;;16.60;76.00;;;16.46;60.58;95011.03;5031211;28;20227;-80
2021/09/27 00:48:38;;;;;;;16.35;14.48;;;16.60;76.40;;;16.48;60.59;95017.72;5031238;28;20609;-80
2021/09/27 00:51:13;;;;;;;15.93;13.70;;;16.70;76.10;;;16.51;60.54;95013.00;5015095;28;20306;-79
2021/09/27 00:53:53;;;;;;;16.17;13.43;;;16.70;76.70;;;16.50;60.50;95009.53;5031281;28;20187;-79
2021/09/27 00:56:27;;;;;;;17.15;14.60;;;16.60;76.90;;;16.54;60.87;95007.25;5017033;28;20350;-80
2021/09/27 00:58:56;;;;;;;17.42;13.60;;;16.60;76.50;;;16.54;60.83;95009.88;4998898;28;20665;-80
2021/09/27 01:01:25;;;;;;;16.45;14.23;;;16.60;76.20;;;16.55;60.59;95017.63;5014819;28;20215;-80
2021/09/27 01:03:53;;;;;;;25.40;14.82;;;16.70;76.30;;;16.58;60.64;95013.72;5031296;28;20308;-80
2021/09/27 01:07:03;;;;;;;15.98;13.30;;;16.70;76.40;;;16.58;60.65;95019.81;5016064;28;20228;-80
2021/09/27 01:10:13;;;;;;;15.73;13.18;;;16.70;77.00;;;16.57;60.82;95010.25;5034315;28;20249;-80
2021/09/27 01:12:47;;;;;;;16.15;13.27;;;16.70;76.90;;;16.60;60.81;95017.75;5051115;28;20203;-80
2021/09/27 01:15:51;;;;;;;15.20;13.60;;;16.70;76.50;;;16.59;60.88;95016.13;5050552;28;20175;-80
2021/09/27 01:19:12;;;;;;;16.27;12.85;;;16.70;77.00;;;16.59;60.52;95010.81;5034293;28;20195;-79
2021/09/27 01:22:05;;;;;;;16.08;13.30;;;16.80;76.80;;;16.58;60.61;95003.91;5049225;28;20219;-79
2021/09/27 01:24:57;;;;;;;13.80;12.32;;;16.70;77.00;;;16.61;60.41;95000.81;5067554;28;20223;-79
2021/09/27 01:28:10;;;;;;;15.65;12.05;;;16.80;76.60;;;16.61;60.80;95002.66;5017458;28;20231;-79
2021/09/27 01:30:53;;;;;;;14.60;12.27;;;16.80;76.70;;;16.62;60.77;95004.28;5050658;28;20226;-80
2021/09/27 01:33:40;;;;;;;15.77;13.60;;;16.80;76.90;;;16.62;60.71;94988.38;5051050;28;20657;-79
2021/09/27 01:36:26;;;;;;;15.48;13.35;;;16.80;77.00;;;16.63;61.00;94993.44;5033918;28;20220;-79
2021/09/27 01:39:22;;;;;;;15.68;13.25;;;16.80;77.00;;;16.63;60.95;94993.44;5018135;28;20196;-80
2021/09/27 01:42:19;;;;;;;15.70;13.18;;;16.80;77.10;;;16.64;60.79;94994.25;5050638;28;20272;-80
2021/09/27 01:45:03;;;;;;;16.77;13.52;;;16.80;77.00;;;16.66;61.11;94997.47;5051477;28;20723;-80
2021/09/27 01:47:41;;;;;;;17.52;13.88;;;16.80;77.20;;;16.68;61.17;94990.13;5054670;28;20231;-80
2021/09/27 01:50:58;;;;;;;16.13;14.18;;;16.80;77.00;;;16.70;61.42;95000.47;5054333;28;20620;-80
2021/09/27 01:53:48;;;;;;;17.20;14.57;;;16.80;77.00;;;16.74;61.66;94999.78;5017968;28;20200;-80
2021/09/27 01:56:43;;;;;;;17.10;14.82;;;16.80;77.30;;;16.77;61.79;95004.66;5036269;28;20296;-80
2021/09/27 01:59:36;;;;;;;17.02;14.50;;;16.90;77.30;;;16.84;61.75;95001.09;5037926;28;20290;-80
2021/09/27 02:02:28;;;;;;;18.75;16.05;;;16.90;77.60;;;16.89;61.64;95009.94;5055239;28;20211;-80
2021/09/27 02:05:13;;;;;;;18.70;14.85;;;17.00;77.50;;;16.94;61.95;95007.47;5037341;28;20203;-79
2021/09/27 02:08:19;;;;;;;15.27;13.43;;;17.00;77.60;;;16.98;61.35;95010.47;5021287;28;20285;-80
2021/09/27 02:11:12;;;;;;;13.73;12.10;;;17.00;77.50;;;17.02;61.32;95000.22;5054335;28;20207;-79
2021/09/27 02:14:03;;;;;;;15.77;13.50;;;17.20;77.60;;;17.04;61.86;95004.25;5021140;28;20218;-80
2021/09/27 02:17:05;;;;;;;16.58;14.23;;;17.10;77.30;;;17.07;61.91;95009.06;5054328;28;20261;-80
2021/09/27 02:19:32;;;;;;;17.42;15.57;;;17.10;77.50;;;17.10;62.56;95010.44;5053836;28;20195;-80
2021/09/27 02:22:13;;;;;;;18.30;15.93;;;17.20;77.50;;;17.10;62.52;95013.09;5053758;28;20734;-80
2021/09/27 02:24:54;;;;;;;17.23;15.43;;;17.20;78.00;;;17.12;62.94;95011.84;5053514;28;20199;-79
2021/09/27 02:27:22;;;;;;;17.27;15.20;;;17.30;78.10;;;17.16;62.62;95011.38;5053844;28;20646;-79
2021/09/27 02:29:49;;;;;;;15.85;14.18;;;17.20;77.60;;;17.17;62.91;95010.34;5053807;28;20188;-80
2021/09/27 02:32:30;;;;;;;15.90;14.05;;;17.30;77.70;;;17.20;62.72;95018.66;5053566;28;20215;-80
2021/09/27 02:35:17;;;;;;;16.33;14.63;;;17.30;78.10;;;17.22;62.62;95021.06;5069449;28;20603;-80
2021/09/27 02:38:03;;;;;;;17.55;14.05;;;17.30;78.00;;;17.24;62.61;95025.09;5020748;28;20289;-80
2021/09/27 02:40:56;;;;;;;19.42;16.33;;;17.30;78.00;;;17.25;62.93;95024.06;5037002;28;20241;-79
2021/09/27 02:43:25;;;;;;;20.10;17.20;;;17.40;77.90;;;17.27;63.18;95029.94;5020264;28;20294;-79
2021/09/27 02:45:56;;;;;;;19.23;17.13;;;17.30;77.80;;;17.28;63.25;95030.75;5053012;28;20707;-78
2021/09/27 02:48:41;;;;;;;18.45;16.55;;;17.50;78.00;;;17.29;62.96;95019.91;5020345;28;20661;-78
2021/09/27 02:51:10;;;;;;;21.27;18.95;;;17.40;79.00;;;17.29;63.43;95030.50;5054013;28;20219;-79
2021/09/27 02:53:37;;;;;;;22.10;19.38;;;17.40;78.00;;;17.30;63.33;95023.38;5053269;28;20195;-79
2021/09/27 02:56:23;;;;;;;19.77;17.40;;;17.40;78.00;;;17.29;63.30;95019.09;5035380;28;20250;-78
2021/09/27 02:59:48;;;;;;;19.48;16.65;;;17.40;78.30;;;17.28;63.17;95018.31;5032704;28;20184;-78
2021/09/27 03:02:46;;;;;;;18.95;15.95;;;17.40;78.00;;;17.29;62.85;95011.16;5048299;28;20770;-78
2021/09/27 03:05:51;;;;;;;18.58;16.70;;;17.50;78.10;;;17.28;62.48;95015.66;5053466;28;20226;-77
2021/09/27 03:08:40;;;;;;;15.20;13.60;;;17.40;78.10;;;17.29;62.76;95009.28;5028103;28;20221;-78
2021/09/27 03:11:52;;;;;;;16.40;14.60;;;17.40;78.00;;;17.32;62.27;95002.75;5018090;28;20627;-79
2021/09/27 03:14:50;;;;;;;15.55;13.88;;;17.50;78.10;;;17.34;62.48;95005.16;5050579;28;20668;-78
2021/09/27 03:17:45;;;;;;;15.77;13.95;;;17.40;78.10;;;17.34;61.99;95003.31;5050079;28;20211;-78
2021/09/27 03:20:38;;;;;;;15.95;13.45;;;17.40;78.00;;;17.38;62.06;95003.66;5018376;28;20223;-78
2021/09/27 03:23:17;;;;;;;15.27;13.13;;;17.40;77.50;;;17.34;62.23;94999.84;5034306;28;20200;-78
2021/09/27 03:26:14;;;;;;;15.80;13.52;;;17.40;77.60;;;17.32;62.14;94999.28;5055556;28;20285;-78
2021/09/27 03:29:03;;;;;;;15.10;12.90;;;17.40;77.80;;;17.29;61.90;94996.03;5032490;28;20207;-78
2021/09/27 03:31:54;;;;;;;14.73;13.20;;;17.40;77.30;;;17.26;61.92;94998.38;5025372;28;20215;-79
2021/09/27 03:35:12;;;;;;;15.45;13.35;;;17.40;77.80;;;17.19;61.98;94995.81;5048425;28;20195;-78
2021/09/27 03:38:00;;;;;;;13.52;11.98;;;17.40;77.70;;;17.15;62.05;94997.34;5074765;28;20191;-78
2021/09/27 03:40:53;;;;;;;15.23;12.88;;;17.30;77.50;;;17.12;62.25;94988.00;5055790;28;20246;-78
2021/09/27 03:43:38;;;;;;;14.98;12.57;;;17.30;77.70;;;17.08;62.28;94994.78;5047005;28;20467;-78
2021/09/27 03:46:19;;;;;;;14.77;12.48;;;17.30;77.40;;;17.02;61.90;94981.66;5031040;28;20223;-79
2021/09/27 03:49:20;;;;;;;14.75;13.18;;;17.30;77.50;;;16.93;62.10;94981.19;5033277;28;20191;-78
2021/09/27 03:52:03;;;;;;;15.55;13.52;;;17.20;77.50;;;16.91;62.14;94994.63;5018314;28;20211;-78
2021/09/27 03:54:55;;;;;;;14.00;12.50;;;17.20;77.40;;;16.84;61.94;94991.28;5068192;28;20188;-80
2021/09/27 03:57:33;;;;;;;14.10;12.60;;;17.10;77.30;;;16.78;62.13;94992.19;5033400;28;20229;-80
2021/09/27 04:00:17;;;;;;;15.65;12.52;;;17.00;77.40;;;16.71;62.11;94989.69;5050103;28;20237;-79
2021/09/27 04:02:58;;;;;;;14.30;12.82;;;17.00;77.50;;;16.66;62.00;94989.53;5049532;28;20200;-80
2021/09/27 04:06:02;;;;;;;16.38;13.10;;;17.00;77.30;;;16.56;62.23;94987.44;5030163;28;20203;-79
2021/09/27 04:08:49;;;;;;;13.68;12.27;;;16.90;77.40;;;16.52;62.24;94985.50;5029322;28;20507;-80
2021/09/27 04:11:28;;;;;;;14.52;12.70;;;16.90;77.50;;;16.44;62.48;94987.44;5014022;28;20301;-80
2021/09/27 04:14:27;;;;;;;14.85;13.10;;;16.80;77.20;;;16.40;62.02;94990.75;5037362;28;20199;-80
2021/09/27 04:17:28;;;;;;;14.57;13.07;;;16.70;77.70;;;16.36;62.18;94989.59;5035277;28;20659;-80
2021/09/27 04:20:13;;;;;;;15.32;13.25;;;16.70;77.70;;;16.31;62.55;94995.56;5035089;28;20630;-80
2021/09/27 04:23:29;;;;;;;15.55;13.70;;;16.60;77.80;;;16.29;62.57;94989.69;5051562;28;20195;-80
2021/09/27 04:26:21;;;;;;;14.38;12.82;;;16.60;78.00;;;16.24;62.46;94992.22;5048212;28;20231;-80
2021/09/27 04:29:11;;;;;;;16.73;12.88;;;16.50;77.80;;;16.21;62.20;95000.59;5064340;28;20188;-80
2021/09/27 04:32:07;;;;;;;15.57;12.50;;;16.50;77.70;;;16.14;62.49;95000.69;5031576;28;20299;-80
2021/09/27 04:35:40;;;;;;;13.73;12.02;;;16.50;77.60;;;16.09;62.26;95008.50;5037942;28;20199;-80
2021/09/27 04:38:09;;;;;;;13.48;11.95;;;16.40;77.70;;;16.03;62.06;94996.97;5050035;28;20252;-79
2021/09/27 04:41:10;;;;;;;14.38;12.30;;;16.40;77.10;;;15.97;62.44;95000.50;5051121;28;20306;-79
2021/09/27 04:44:09;;;;;;;16.38;13.60;;;16.30;77.50;;;15.92;62.54;95006.47;5068284;28;20270;-79
2021/09/27 04:47:18;;;;;;;18.10;13.00;;;16.20;77.70;;;15.88;62.63;95004.47;5031287;28;20326;-79
2021/09/27 04:50:20;;;;;;;15.02;13.32;;;16.20;77.90;;;15.86;62.73;95003.91;5048110;28;20211;-79
2021/09/27 04:53:14;;;;;;;15.57;13.10;;;16.10;78.00;;;15.83;62.91;95008.59;5048980;28;20242;-80
2021/09/27 04:55:53;;;;;;;17.77;12.73;;;16.20;78.00;;;15.83;63.07;95013.88;5051361;28;20219;-79
2021/09/27 04:59:06;;;;;;;14.13;12.65;;;16.10;78.00;;;15.82;63.00;95004.34;5052291;28;20175;-80
2021/09/27 05:02:22;;;;;;;16.88;13.07;;;16.10;78.50;;;15.80;63.16;95000.28;5051982;28;20223;-80
2021/09/27 05:05:08;;;;;;;15.95;13.32;;;16.10;78.20;;;15.81;63.24;94996.59;5021290;28;20206;-80
2021/09/27 05:08:03;;;;;;;13.75;11.85;;;16.10;78.50;;;15.83;63.08;94998.03;5018001;28;20233;-79
2021/09/27 05:10:47;;;;;;;14.38;12.85;;;16.10;77.80;;;15.87;63.24;94998.38;5052240;28;20211;-80
2021/09/27 05:13:50;;;;;;;15.20;13.68;;;16.20;78.50;;;15.86;63.20;94988.03;5050784;28;20544;-80
2021/09/27 05:16:50;;;;;;;15.45;13.27;;;16.10;78.80;;;15.86;63.43;94990.69;5046567;28;20256;-80
2021/09/27 05:19:56;;;;;;;12.95;10.93;;;16.10;78.70;;;15.86;63.19;94998.63;5053289;28;20712;-80
2021/09/27 05:22:41;;;;;;;14.02;11.30;;;16.10;78.80;;;15.85;63.15;94995.16;5055084;28;20302;-80
2021/09/27 05:25:08;;;;;;;13.45;11.25;;;16.10;78.40;;;15.88;63.23;95009.75;5054980;28;20187;-79
2021/09/27 05:28:09;;;;;;;14.38;12.35;;;16.20;77.90;;;15.88;62.72;95007.94;5054802;28;20683;-80
2021/09/27 05:30:58;;;;;;;13.40;11.43;;;16.10;78.90;;;15.92;63.34;95008.31;5054682;28;20215;-80
2021/09/27 05:34:00;;;;;;;15.13;12.52;;;16.10;78.40;;;15.94;63.02;95003.56;5038332;28;20691;-79
2021/09/27 05:36:57;;;;;;;13.48;11.98;;;16.10;79.00;;;16.01;63.25;94999.00;5054627;28;20222;-80
2021/09/27 05:39:39;;;;;;;13.88;12.30;;;16.10;78.90;;;16.10;63.09;95002.97;5054772;28;20250;-80
2021/09/27 05:42:30;;;;;;;15.85;13.57;;;16.20;79.00;;;16.16;63.31;95002.06;5034158;28;20227;-80
2021/09/27 05:45:24;;;;;;;19.20;14.85;;;16.20;78.80;;;16.23;63.51;94999.31;5034686;28;20216;-80
2021/09/27 05:48:19;;;;;;;17.40;13.95;;;16.30;79.10;;;16.31;63.71;94998.22;5026996;28;20220;-80
2021/09/27 05:51:15;;;;;;;15.40;13.45;;;16.30;79.10;;;16.41;63.56;95008.25;5035723;28;20265;-80
2021/09/27 05:53:54;;;;;;;15.02;13.43;;;16.40;79.20;;;16.48;63.96;95006.31;5018012;28;20184;-79
2021/09/27 05:56:30;;;;;;;14.65;12.93;;;16.50;79.20;;;16.58;63.55;95008.41;5018100;28;20641;-80
2021/09/27 05:59:35;;;;;;;15.90;13.93;;;16.50;79.20;;;16.65;63.76;95004.63;5034286;28;20192;-80
2021/09/27 06:02:41;;;;;;;17.63;14.90;;;16.60;79.50;;;16.76;63.49;95010.16;5050748;28;20875;-80
2021/09/27 06:05:29;;;;;;;15.43;13.82;;;16.70;79.70;;;16.87;63.46;95011.22;5035450;28;20204;-80
2021/09/27 06:08:52;;;;;;;16.95;15.05;;;16.80;79.50;;;16.95;63.45;95002.97;5028769;28;20323;-80
2021/09/27 06:11:36;;;;;;;15.73;14.00;;;16.80;79.70;;;17.09;63.80;95011.50;5050677;28;20220;-80
2021/09/27 06:14:05;;;;;;;16.38;14.07;;;17.00;79.60;;;17.19;63.57;95010.94;5034006;28;20561;-80
2021/09/27 06:16:48;;;;;;;16.23;14.48;;;17.00;79.60;;;17.28;63.31;95013.00;5001447;28;20310;-79
2021/09/27 06:19:29;;;;;;;15.95;14.32;;;17.10;79.70;;;17.38;63.45;95014.25;5053644;28;20188;-80
2021/09/27 06:22:09;;;;;;;16.58;14.70;;;17.30;79.80;;;17.44;63.27;95011.50;5037272;28;20235;-81
2021/09/27 06:25:19;;;;;;;15.23;13.30;;;17.30;79.80;;;17.54;63.41;95020.69;5053912;28;20699;-80
2021/09/27 06:28:09;;;;;;;15.90;14.23;;;17.40;79.90;;;17.61;63.26;95013.41;5033910;28;20216;-80
2021/09/27 06:30:48;;;;;;;14.88;13.30;;;17.40;79.80;;;17.68;63.21;95010.66;5049589;28;20212;-80
2021/09/27 06:33:22;;;;;;;15.63;13.93;;;17.50;79.90;;;17.76;63.00;95015.59;5017588;28;20204;-80
2021/09/27 06:35:52;;;;;;;16.20;14.45;;;17.60;80.00;;;17.83;63.53;95012.78;5035583;28;20353;-80
2021/09/27 06:38:31;;;;;;;15.75;13.93;;;17.60;79.80;;;17.89;63.02;95019.81;5053754;28;20224;-80
2021/09/27 06:41:01;;;;;;;15.10;13.32;;;17.70;79.70;;;17.96;63.04;95015.22;5037069;28;20779;-80
2021/09/27 06:43:28;;;;;;;13.93;12.52;;;17.80;79.60;;;18.02;63.24;95016.91;5053531;28;20728;-81
2021/09/27 06:45:56;;;;;;;16.02;13.40;;;17.90;79.60;;;18.10;63.01;95021.03;5036753;28;20251;-80
2021/09/27 06:48:25;;;;;;;14.85;13.35;;;17.90;79.60;;;18.16;63.51;95019.31;5036321;28;20767;-80
2021/09/27 06:50:55;;;;;;;14.95;13.18;;;18.00;79.60;;;18.22;63.10;95016.53;5036833;28;20215;-80
2021/09/27 06:53:24;;;;;;;14.98;13.43;;;18.10;79.60;;;18.30;63.08;95017.19;5052757;28;20195;-80
2021/09/27 06:55:52;;;;;;;15.05;13.45;;;18.10;79.50;;;18.37;62.97;95021.28;5037436;28;20207;-79
2021/09/27 06:58:23;;;;;;;17.13;14.63;;;18.20;80.40;;;18.44;63.12;95015.81;5052438;28;20230;-80
2021/09/27 07:00:53;;;;;;;15.52;13.93;;;18.30;79.50;;;18.49;62.80;95020.44;5053243;28;20681;-80
2021/09/27 07:03:21;;;;;;;18.23;13.80;;;18.30;79.50;;;18.55;63.07;95017.63;5036632;28;20192;-80
2021/09/27 07:05:49;;;;;;;15.57;13.93;;;18.40;79.40;;;18.61;63.08;95021.16;5036698;28;20225;-80
2021/09/27 07:08:18;;;;;;;16.98;14.73;;;18.40;79.40;;;18.67;63.35;95022.84;5053091;28;20227;-80
2021/09/27 07:10:48;;;;;;;15.70;14.02;;;18.50;79.30;;;18.68;62.98;95019.16;5052947;28;20207;-80
2021/09/27 07:13:16;;;;;;;15.23;13.63;;;18.50;79.20;;;18.78;62.99;95025.69;5036617;28;20282;-80
2021/09/27 07:15:43;;;;;;;16.02;14.13;;;18.60;79.20;;;18.81;62.49;95022.56;5036456;28;20219;-80
2021/09/27 07:18:10;;;;;;;15.75;14.02;;;18.70;79.20;;;18.87;62.88;95027.72;5049599;28;20192;-80
2021/09/27 07:20:38;;;;;;;15.35;13.75;;;18.70;79.10;;;18.93;62.37;95027.81;5049239;28;20634;-80
2021/09/27 07:23:05;;;;;;;15.65;14.05;;;18.80;79.20;;;19.00;62.37;95031.13;5017166;28;20242;-80
2021/09/27 07:25:34;;;;;;;19.75;17.65;;;18.80;79.10;;;19.07;62.76;95026.47;5052478;28;20187;-80
2021/09/27 07:28:02;;;;;;;19.02;17.05;;;18.90;79.20;;;19.20;62.63;95033.31;5052856;28;20239;-80
2021/09/27 07:30:30;;;;;;;18.67;16.70;;;18.90;79.20;;;19.30;62.94;95030.00;5019423;28;20227;-80
2021/09/27 07:32:59;;;;;;;17.45;15.70;;;19.00;79.30;;;19.41;62.58;95037.06;5052802;28;20196;-81
2021/09/27 07:35:30;;;;;;;19.63;16.33;;;19.10;79.40;;;19.52;62.39;95027.38;5019545;28;20290;-80
2021/09/27 07:37:57;;;;;;;18.05;15.90;;;19.20;79.20;;;19.56;62.39;95028.50;5052657;28;20227;-81
2021/09/27 07:40:29;;;;;;;19.60;17.60;;;19.30;79.20;;;19.69;62.19;95030.00;5033583;28;20301;-80
2021/09/27 07:42:56;;;;;;;19.98;17.70;;;19.40;79.00;;;19.79;61.89;95038.09;5051418;28;20307;-80
2021/09/27 07:45:26;;;;;;;18.65;16.70;;;19.40;78.90;;;19.86;61.66;95037.16;5069024;28;20187;-80
2021/09/27 07:47:54;;;;;;;17.98;16.08;;;19.60;78.60;;;19.90;61.46;95032.97;5052333;28;20739;-80
2021/09/27 07:50:22;;;;;;;17.55;15.65;;;19.60;78.30;;;19.90;61.81;95032.97;5035631;28;20282;-80
2021/09/27 07:52:49;;;;;;;17.10;15.30;;;19.60;78.20;;;19.94;61.37;95028.72;5052447;28;20298;-80
2021/09/27 07:55:17;;;;;;;18.30;16.50;;;19.70;78.30;;;19.95;61.52;95027.69;5035802;28;20192;-80
2021/09/27 07:57:44;;;;;;;17.88;15.90;;;19.70;78.00;;;19.96;61.55;95021.31;5035592;28;20200;-80
2021/09/27 08:00:14;;;;;;;17.13;15.32;;;19.80;78.00;;;19.98;61.34;95025.34;5035453;28;20273;-80
2021/09/27 08:02:43;;;;;;;18.38;15.90;;;19.80;77.90;;;19.99;61.00;95018.13;5035580;28;20229;-80
2021/09/27 08:05:15;;;;;;;19.00;16.10;;;19.80;77.70;;;19.98;61.08;95017.34;5035426;28;20203;-79
2021/09/27 08:07:42;;;;;;;17.02;15.23;;;19.90;77.70;;;19.99;61.28;95021.63;5035620;28;20219;-80
2021/09/27 08:10:12;;;;;;;16.75;14.95;;;19.90;77.60;;;20.02;61.18;95027.47;5035405;28;20217;-80
2021/09/27 08:12:39;;;;;;;16.40;14.43;;;19.90;77.50;;;19.98;61.21;95022.66;5051871;28;20199;-80
2021/09/27 08:15:13;;;;;;;16.83;15.02;;;19.90;77.50;;;20.01;60.72;95029.34;5035449;28;20246;-80
2021/09/27 08:17:42;;;;;;;18.63;15.05;;;19.90;77.50;;;20.03;61.10;95037.09;5051894;28;20203;-80
2021/09/27 08:20:12;;;;;;;20.70;16.88;;;19.90;77.50;;;20.02;61.24;95041.63;5035240;28;20274;-80
2021/09/27 08:22:40;;;;;;;17.73;15.80;;;19.90;77.30;;;19.97;60.70;95041.56;5051835;28;20192;-79
2021/09/27 08:25:09;;;;;;;19.77;16.92;;;19.90;77.20;;;19.95;60.76;95035.66;5051792;28;20290;-79
2021/09/27 08:27:37;;;;;;;18.42;16.30;;;19.90;77.00;;;19.90;60.99;95043.59;5018473;28;20272;-80
2021/09/27 08:30:08;;;;;;;16.42;14.73;;;19.90;77.00;;;19.84;61.15;95040.84;5035041;28;20187;-80
2021/09/27 08:32:35;;;;;;;17.45;15.45;;;19.90;76.90;;;19.86;61.22;95055.78;5034976;28;20207;-80
2021/09/27 08:35:04;;;;;;;19.38;17.27;;;19.90;76.90;;;19.82;60.52;95047.44;5034768;28;20219;-80
2021/09/27 08:37:31;;;;;;;19.10;17.10;;;19.90;76.80;;;19.78;60.52;95046.34;5035063;28;20235;-80
2021/09/27 08:39:58;;;;;;;18.90;16.90;;;19.90;76.80;;;19.73;60.76;95049.72;5034897;28;20195;-80
2021/09/27 08:42:38;;;;;;;19.52;17.42;;;19.80;76.70;;;19.71;60.92;95043.06;5051690;28;20215;-80
2021/09/27 08:45:20;;;;;;;17.45;15.70;;;19.80;76.70;;;19.72;61.15;95053.44;5034891;28;20285;-79
2021/09/27 08:48:25;;;;;;;17.85;15.98;;;19.80;76.80;;;19.76;61.25;95051.09;5051033;28;20231;-80
2021/09/27 08:50:53;;;;;;;19.08;16.10;;;19.70;76.90;;;19.81;60.87;95045.84;5033017;28;20310;-81
2021/09/27 08:53:26;;;;;;;17.25;15.07;;;19.80;77.00;;;19.85;61.11;95047.00;5034364;28;20623;-81
2021/09/27 08:56:29;;;;;;;18.02;16.15;;;19.80;77.00;;;19.85;60.72;95047.00;5050926;28;20222;-79
2021/09/27 08:59:20;;;;;;;16.60;14.73;;;19.80;76.80;;;19.84;60.58;95050.72;5047809;28;20254;-80
2021/09/27 09:02:11;;;;;;;19.35;17.33;;;19.80;76.80;;;19.75;60.47;95049.47;5049461;28;20281;-80
2021/09/27 09:05:13;;;;;;;18.50;16.50;;;19.90;76.50;;;19.71;60.61;95062.47;5051091;28;20261;-80
2021/09/27 09:08:08;;;;;;;20.42;17.17;;;19.80;76.40;;;19.63;60.45;95057.59;5051300;28;20219;-80
2021/09/27 09:11:02;;;;;;;20.80;17.10;;;19.70;76.40;;;19.55;60.88;95060.66;5046668;28;20207;-80
2021/09/27 09:13:52;;;;;;;18.67;16.67;;;19.70;76.50;;;19.54;60.72;95057.19;5031406;28;20188;-80
2021/09/27 09:16:24;;;;;;;19.67;17.42;;;19.70;76.70;;;19.55;60.93;95063.31;5014651;28;20277;-80
2021/09/27 09:18:57;;;;;;;19.38;16.95;;;19.60;76.70;;;19.56;60.65;95071.06;5020209;28;20202;-80
2021/09/27 09:22:00;;;;;;;22.02;17.73;;;19.60;76.80;;;19.52;61.25;95065.41;5030959;28;20212;-80
2021/09/27 09:24:35;;;;;;;20.63;17.83;;;19.60;76.80;;;19.52;61.00;95067.28;5033884;28;20198;-80
2021/09/27 09:27:10;;;;;;;21.65;18.77;;;19.60;76.80;;;19.56;61.32;95075.59;5050725;28;20223;-80
2021/09/27 09:29:41;;;;;;;19.58;17.25;;;19.70;77.00;;;19.56;61.34;95079.03;5034604;28;20194;-80
2021/09/27 09:32:10;;;;;;;18.63;16.63;;;19.60;77.00;;;19.61;61.06;95071.13;5043510;28;20687;-80
2021/09/27 09:34:38;;;;;;;17.20;15.30;;;19.60;77.10;;;19.70;61.20;95081.34;5030894;28;20306;-80
2021/09/27 09:37:29;;;;;;;21.77;16.17;;;19.70;77.50;;;19.81;61.19;95072.44;5014304;28;20216;-81
2021/09/27 09:40:17;;;;;;;19.58;17.48;;;19.70;77.40;;;19.91;60.86;95072.63;5043715;28;20656;-80
2021/09/27 09:43:09;;;;;;;20.05;17.90;;;19.70;77.40;;;20.05;61.14;95072.25;5030937;28;20200;-80
2021/09/27 09:45:45;;;;;;;20.05;17.75;;;19.80;77.30;;;20.17;60.63;95072.94;5047216;28;20231;-81
2021/09/27 09:48:23;;;;;;;20.52;17.83;;;19.90;77.60;;;20.26;60.76;95070.63;5047310;28;20222;-81
2021/09/27 09:50:53;;;;;;;20.38;18.17;;;20.00;77.40;;;;;;5014237;28;20215;-80
2021/09/27 09:53:32;;;;;;;19.25;17.25;;;20.10;77.60;;;20.48;60.60;95066.09;5046562;28;20291;-81
2021/09/27 09:56:10;;;;;;;22.17;18.48;;;20.20;77.50;;;20.56;60.42;95074.72;5014197;28;20251;-80
2021/09/27 09:58:45;;;;;;;24.23;19.17;;;20.20;77.10;;;20.57;60.22;95069.13;5030547;28;20200;-80
2021/09/27 10:01:33;;;;;;;20.25;17.63;;;20.40;76.90;;;20.56;59.96;95072.03;5049928;28;20219;-80
2021/09/27 10:04:21;;;;;;;19.58;17.17;;;20.40;76.80;;;20.59;60.35;95071.53;5050965;28;20206;-80
2021/09/27 10:07:08;;;;;;;21.92;19.10;;;20.40;76.90;;;20.59;60.19;95074.19;5020650;28;20610;-80
2021/09/27 10:09:43;;;;;;;24.60;20.90;;;20.50;76.70;;;20.56;59.88;95072.03;5021300;28;20609;-81
2021/09/27 10:12:14;;;;;;;23.85;20.88;;;20.50;76.40;;;20.45;59.72;95074.59;5053382;28;20260;-80
2021/09/27 10:14:45;;;;;;;25.13;20.88;;;20.50;76.30;;;20.40;60.02;95068.41;5034261;28;20181;-80
2021/09/27 10:17:31;;;;;;;24.90;19.35;;;20.50;76.20;;;20.37;59.70;95066.22;5031556;28;20698;-80
2021/09/27 10:20:20;;;;;;;21.70;18.58;;;20.40;76.20;;;;;;5017765;28;20258;-80
2021/09/27 10:22:57;;;;;;;21.38;18.00;;;20.40;76.30;;;20.32;59.99;95072.31;5034148;28;20618;-81
2021/09/27 10:25:34;;;;;;;20.10;16.90;;;20.40;76.30;;;20.33;60.32;95067.81;5017567;28;20287;-80
2021/09/27 10:28:06;;;;;;;22.05;19.15;;;20.40;76.30;;;20.29;59.86;95060.28;5033963;28;20230;-80
2021/09/27 10:30:41;;;;;;;23.75;18.40;;;20.30;76.20;;;20.28;60.02;95076.53;5018738;28;20208;-79
2021/09/27 10:33:24;;;;;;;22.23;18.50;;;20.40;76.40;;;20.22;59.78;95073.00;5070422;28;20199;-80
2021/09/27 10:36:15;;;;;;;24.00;19.35;;;20.30;76.30;;;20.15;60.35;95075.84;5037204;28;20219;-80
2021/09/27 10:38:53;;;;;;;25.08;22.38;;;20.30;76.20;;;20.04;60.26;95068.78;5037137;28;20203;-79
2021/09/27 10:41:37;;;;;;;22.05;19.65;;;20.30;76.00;;;19.96;60.34;95075.34;5019280;28;20234;-78
2021/09/27 10:44:15;;;;;;;24.83;20.65;;;20.20;76.10;;;19.93;60.77;95072.38;5036915;28;20215;-80
2021/09/27 10:46:48;;;;;;;25.65;21.77;;;20.10;76.20;;;19.89;60.21;95076.59;5037065;28;20227;-80
2021/09/27 10:49:30;;;;;;;24.80;20.80;;;20.10;76.30;;;19.84;60.91;95077.31;5066625;28;20742;-81
2021/09/27 10:52:21;;;;;;;24.67;20.95;;;20.00;76.40;;;19.82;60.92;95077.56;5058738;28;20688;-80
2021/09/27 10:55:13;;;;;;;23.73;21.15;;;20.00;76.60;;;19.84;61.23;95075.47;5051784;28;20252;-80
2021/09/27 10:57:49;;;;;;;24.98;21.67;;;20.00;76.60;;;19.91;61.17;95079.78;5017068;28;20265;-80
2021/09/27 11:00:53;;;;;;;25.13;22.10;;;19.90;76.80;;;19.95;60.99;95073.75;5033228;28;20196;-80
2021/09/27 11:03:41;;;;;;;27.55;22.25;;;20.00;76.90;;;20.07;60.94;95068.28;5033935;28;20199;-80
2021/09/27 11:06:36;;;;;;;24.75;20.13;;;20.00;77.10;;;20.20;60.94;95074.31;5036480;28;20691;-80
2021/09/27 11:09:28;;;;;;;22.58;20.02;;;20.00;77.20;;;20.38;61.34;95073.19;5052920;28;20237;-80
2021/09/27 11:12:30;;;;;;;24.65;20.85;;;20.10;77.50;;;20.62;61.13;95071.81;5033156;28;20701;-80